createdAt,value
2023-04-07T00:01:49.209Z,8.97
2023-04-07T00:04:16.841Z,7.33
2023-04-07T00:06:44.102Z,9.30
2023-04-07T00:09:11.732Z,7.97
2023-04-07T00:11:38.992Z,6.83
2023-04-07T00:14:06.158Z,10.07
2023-04-07T00:16:33.453Z,7.87
2023-04-07T00:19:00.796Z,7.97
2023-04-07T00:21:28.094Z,7.90
2023-04-07T00:23:55.569Z,8.60
2023-04-07T00:26:22.966Z,8.80
2023-04-07T00:28:50.135Z,8.67
2023-04-07T00:31:17.380Z,7.80
2023-04-07T00:33:44.638Z,8.90
2023-04-07T00:36:11.789Z,8.07
2023-04-07T00:38:38.953Z,8.13
2023-04-07T00:41:06.249Z,10.37
2023-04-07T00:43:33.654Z,9.50
2023-04-07T00:46:01.454Z,10.20
2023-04-07T00:48:28.747Z,8.60
2023-04-07T00:50:56.246Z,10.13
2023-04-07T00:53:23.492Z,10.83
2023-04-07T00:55:50.812Z,8.70
2023-04-07T00:58:17.954Z,11.77
2023-04-07T01:00:50.830Z,10.37
2023-04-07T01:03:40.590Z,10.77
2023-04-07T01:06:08.865Z,9.70
2023-04-07T01:08:51.390Z,11.77
2023-04-07T01:11:24.208Z,11.67
2023-04-07T01:13:51.866Z,10.07
2023-04-07T01:16:30.897Z,10.70
2023-04-07T01:18:59.944Z,12.33
2023-04-07T01:21:28.782Z,11.97
2023-04-07T01:24:06.849Z,8.60
2023-04-07T01:26:34.590Z,11.73
2023-04-07T01:29:20.512Z,9.40
2023-04-07T01:31:49.713Z,13.20
2023-04-07T01:34:18.257Z,12.40
2023-04-07T01:36:46.420Z,13.63
2023-04-07T01:39:14.142Z,9.77
2023-04-07T01:41:42.298Z,9.67
2023-04-07T01:44:10.434Z,10.60
2023-04-07T01:46:37.803Z,10.43
2023-04-07T01:49:05.481Z,11.47
2023-04-07T01:51:33.210Z,10.83
2023-04-07T01:54:01.572Z,10.67
2023-04-07T01:56:28.820Z,11.63
2023-04-07T01:58:56.040Z,9.33
2023-04-07T02:01:23.339Z,10.67
2023-04-07T02:03:56.788Z,12.30
2023-04-07T02:06:28.099Z,13.70
2023-04-07T02:08:58.145Z,12.63
2023-04-07T02:11:25.714Z,13.63
2023-04-07T02:13:54.814Z,10.83
2023-04-07T02:16:23.218Z,10.90
2023-04-07T02:18:50.754Z,10.17
2023-04-07T02:21:18.676Z,10.63
2023-04-07T02:23:45.929Z,13.03
2023-04-07T02:26:13.152Z,11.00
2023-04-07T02:28:40.408Z,12.37
2023-04-07T02:31:07.629Z,10.33
2023-04-07T02:33:34.837Z,11.37
2023-04-07T02:36:02.065Z,12.80
2023-04-07T02:38:29.384Z,15.43
2023-04-07T02:40:56.645Z,11.77
2023-04-07T02:43:25.411Z,12.23
2023-04-07T02:45:52.809Z,13.13
2023-04-07T02:48:20.008Z,9.90
2023-04-07T02:50:47.275Z,13.00
2023-04-07T02:53:14.474Z,12.73
2023-04-07T02:55:41.634Z,12.40
2023-04-07T02:58:08.896Z,14.33
2023-04-07T03:00:36.108Z,12.70
2023-04-07T03:03:03.424Z,11.37
2023-04-07T03:05:30.999Z,12.80
2023-04-07T03:07:58.180Z,10.60
2023-04-07T03:10:25.521Z,12.23
2023-04-07T03:12:52.762Z,14.13
2023-04-07T03:15:19.944Z,11.43
2023-04-07T03:17:47.276Z,9.10
2023-04-07T03:20:14.648Z,12.77
2023-04-07T03:22:41.955Z,12.20
2023-04-07T03:25:09.234Z,12.27
2023-04-07T03:27:36.414Z,13.23
2023-04-07T03:30:03.786Z,14.93
2023-04-07T03:32:30.918Z,13.80
2023-04-07T03:34:58.082Z,12.07
2023-04-07T03:37:25.416Z,13.60
2023-04-07T03:39:52.639Z,12.57
2023-04-07T03:42:19.782Z,15.07
2023-04-07T03:44:47.318Z,12.07
2023-04-07T03:47:14.464Z,12.87
2023-04-07T03:49:41.622Z,12.60
2023-04-07T03:52:08.852Z,13.33
2023-04-07T03:54:36.019Z,13.07
2023-04-07T03:57:03.311Z,11.80
2023-04-07T03:59:30.487Z,14.33
2023-04-07T04:01:57.664Z,13.57
2023-04-07T04:04:24.979Z,12.53
2023-04-07T04:06:52.701Z,14.47
2023-04-07T04:09:20.916Z,12.53
2023-04-07T04:11:48.199Z,10.83
2023-04-07T04:14:15.954Z,13.83
2023-04-07T04:16:44.069Z,15.10
2023-04-07T04:19:11.317Z,10.90
2023-04-07T04:21:38.500Z,12.00
2023-04-07T04:24:05.813Z,12.07
2023-04-07T04:26:33.013Z,10.90
2023-04-07T04:29:00.397Z,12.13
2023-04-07T04:31:27.645Z,11.47
2023-04-07T04:33:55.003Z,14.10
2023-04-07T04:36:22.297Z,12.73
2023-04-07T04:38:49.487Z,13.17
2023-04-07T04:41:17.942Z,11.60
2023-04-07T04:43:45.544Z,11.33
2023-04-07T04:46:12.765Z,11.10
2023-04-07T04:48:39.888Z,11.40
2023-04-07T04:51:08.301Z,17.43
2023-04-07T04:53:35.476Z,12.90
2023-04-07T04:56:02.619Z,12.97
2023-04-07T04:58:29.802Z,14.37
2023-04-07T05:00:58.341Z,12.90
2023-04-07T05:03:28.914Z,15.20
2023-04-07T05:05:56.364Z,16.00
2023-04-07T05:08:23.585Z,17.60
2023-04-07T05:10:50.876Z,14.97
2023-04-07T05:13:18.074Z,14.07
2023-04-07T05:15:45.242Z,14.67
2023-04-07T05:18:13.591Z,14.47
2023-04-07T05:20:41.086Z,11.37
2023-04-07T05:23:08.277Z,17.03
2023-04-07T05:25:35.613Z,19.00
2023-04-07T05:28:02.859Z,14.03
2023-04-07T05:30:30.033Z,15.73
2023-04-07T05:32:57.227Z,15.13
2023-04-07T05:35:24.494Z,17.67
2023-04-07T05:37:51.667Z,14.90
2023-04-07T05:40:19.278Z,12.20
2023-04-07T05:42:46.438Z,15.23
2023-04-07T05:45:13.634Z,12.67
2023-04-07T05:47:41.244Z,13.23
2023-04-07T05:50:08.804Z,15.40
2023-04-07T05:52:36.309Z,14.83
2023-04-07T05:55:03.537Z,14.57
2023-04-07T05:57:30.786Z,14.47
2023-04-07T05:59:58.021Z,14.83
2023-04-07T06:02:25.442Z,17.07
2023-04-07T06:04:52.894Z,12.27
2023-04-07T06:07:20.072Z,14.40
2023-04-07T06:09:47.250Z,13.97
2023-04-07T06:12:15.206Z,12.53
2023-04-07T06:14:42.425Z,13.43
2023-04-07T06:17:09.657Z,17.83
2023-04-07T06:19:37.058Z,15.27
2023-04-07T06:22:04.228Z,16.17
2023-04-07T06:24:31.490Z,16.30
2023-04-07T06:26:58.820Z,13.93
2023-04-07T06:29:26.618Z,14.47
2023-04-07T06:31:53.828Z,13.80
2023-04-07T06:34:21.015Z,12.97
2023-04-07T06:36:48.294Z,20.33
2023-04-07T06:39:15.646Z,15.47
2023-04-07T06:41:43.569Z,16.10
2023-04-07T06:44:11.267Z,12.77
2023-04-07T06:46:38.501Z,13.63
2023-04-07T06:49:06.077Z,18.73
2023-04-07T06:51:33.267Z,15.17
2023-04-07T06:54:00.650Z,17.30
2023-04-07T06:56:27.789Z,15.00
2023-04-07T06:58:54.975Z,14.43
2023-04-07T07:01:22.143Z,14.13
2023-04-07T07:03:49.670Z,17.50
2023-04-07T07:06:17.254Z,14.47
2023-04-07T07:08:44.447Z,12.77
2023-04-07T07:11:11.860Z,16.50
2023-04-07T07:13:39.042Z,16.33
2023-04-07T07:16:06.464Z,14.07
2023-04-07T07:18:33.686Z,17.33
2023-04-07T07:21:00.957Z,15.23
2023-04-07T07:23:28.183Z,17.10
2023-04-07T07:25:55.368Z,14.30
2023-04-07T07:28:22.621Z,15.50
2023-04-07T07:30:49.946Z,15.37
2023-04-07T07:33:17.189Z,13.27
2023-04-07T07:35:44.423Z,18.20
2023-04-07T07:38:12.687Z,16.67
2023-04-07T07:40:39.909Z,18.80
2023-04-07T07:43:07.172Z,11.93
2023-04-07T07:45:34.710Z,12.67
2023-04-07T07:48:01.930Z,14.40
2023-04-07T07:50:29.244Z,15.13
2023-04-07T07:52:56.416Z,16.33
2023-04-07T07:55:23.649Z,18.13
2023-04-07T07:57:51.082Z,16.87
2023-04-07T08:00:18.428Z,15.43
2023-04-07T08:02:45.665Z,15.30
2023-04-07T08:05:13.007Z,14.80
2023-04-07T08:07:40.336Z,15.00
2023-04-07T08:10:07.719Z,15.60
2023-04-07T08:12:34.964Z,15.37
2023-04-07T08:15:02.783Z,14.20
2023-04-07T08:17:29.959Z,17.90
2023-04-07T08:19:57.171Z,15.33
2023-04-07T08:22:24.488Z,17.20
2023-04-07T08:24:51.651Z,15.23
2023-04-07T08:27:18.837Z,16.53
2023-04-07T08:29:46.204Z,15.60
2023-04-07T08:32:14.060Z,17.07
2023-04-07T08:34:41.309Z,19.67
2023-04-07T08:37:09.586Z,18.37
2023-04-07T08:39:36.806Z,14.43
2023-04-07T08:42:04.244Z,19.77
2023-04-07T08:44:31.956Z,17.13
2023-04-07T08:47:00.377Z,17.43
2023-04-07T08:49:29.722Z,17.57
2023-04-07T08:51:57.468Z,17.47
2023-04-07T08:54:24.914Z,15.90
2023-04-07T08:56:52.309Z,16.83
2023-04-07T08:59:23.177Z,16.50
2023-04-07T09:01:50.726Z,16.53
2023-04-07T09:04:18.306Z,16.20
2023-04-07T09:06:45.618Z,19.43
2023-04-07T09:09:15.489Z,21.63
2023-04-07T09:11:42.792Z,17.17
2023-04-07T09:14:10.036Z,18.40
2023-04-07T09:16:37.324Z,20.47
2023-04-07T09:19:04.483Z,20.37
2023-04-07T09:21:51.715Z,19.43
2023-04-07T09:24:26.109Z,20.50
2023-04-07T09:27:16.112Z,27.00
2023-04-07T09:29:44.886Z,29.87
2023-04-07T09:32:13.471Z,24.40
2023-04-07T09:34:41.961Z,24.47
2023-04-07T09:37:09.663Z,24.83
2023-04-07T09:39:51.791Z,19.37
2023-04-07T09:42:19.133Z,21.67
2023-04-07T09:44:46.424Z,20.00
2023-04-07T09:47:13.618Z,20.13
2023-04-07T09:49:52.621Z,18.83
2023-04-07T09:52:20.933Z,19.33
2023-04-07T09:54:48.620Z,17.23
2023-04-07T09:57:18.337Z,18.13
2023-04-07T09:59:45.647Z,24.07
2023-04-07T10:02:13.046Z,19.03
2023-04-07T10:04:41.297Z,19.00
2023-04-07T10:07:08.741Z,22.47
2023-04-07T10:09:36.139Z,21.67
2023-04-07T10:12:04.171Z,18.43
2023-04-07T10:14:32.095Z,20.40
2023-04-07T10:17:04.363Z,19.77
2023-04-07T10:19:33.559Z,19.00
2023-04-07T10:22:01.745Z,17.43
2023-04-07T10:24:41.060Z,19.30
2023-04-07T10:27:11.582Z,17.17
2023-04-07T10:29:41.344Z,19.47
2023-04-07T10:32:08.637Z,18.77
2023-04-07T10:34:50.788Z,16.30
2023-04-07T10:37:21.298Z,15.63
2023-04-07T10:39:49.179Z,16.27
2023-04-07T10:42:35.318Z,15.63
2023-04-07T10:45:02.756Z,16.43
2023-04-07T10:47:30.330Z,15.40
2023-04-07T10:50:16.855Z,16.87
2023-04-07T10:52:44.358Z,16.53
2023-04-07T10:55:31.676Z,14.73
2023-04-07T10:58:31.501Z,14.23
2023-04-07T11:01:01.646Z,14.77
2023-04-07T11:03:30.028Z,17.80
2023-04-07T11:06:08.307Z,18.03
2023-04-07T11:08:36.571Z,17.37
2023-04-07T11:11:09.237Z,14.43
2023-04-07T11:13:50.157Z,15.73
2023-04-07T11:16:18.864Z,15.87
2023-04-07T11:18:47.853Z,16.07
2023-04-07T11:21:19.611Z,16.70
2023-04-07T11:23:48.469Z,17.37
2023-04-07T11:26:16.453Z,18.20
2023-04-07T11:28:48.006Z,16.53
2023-04-07T11:31:28.187Z,16.47
2023-04-07T11:33:59.399Z,15.07
2023-04-07T11:36:31.067Z,15.97
2023-04-07T11:38:58.448Z,14.60
2023-04-07T11:41:27.321Z,14.37
2023-04-07T11:44:08.078Z,16.13
2023-04-07T11:46:36.263Z,14.27
2023-04-07T11:49:13.755Z,17.53
2023-04-07T11:51:41.552Z,16.83
2023-04-07T11:54:08.858Z,14.77
2023-04-07T11:56:43.573Z,14.47
2023-04-07T11:59:19.056Z,17.70
2023-04-07T12:01:46.317Z,14.10
2023-04-07T12:04:16.256Z,14.67
2023-04-07T12:06:44.129Z,12.53
2023-04-07T12:09:29.399Z,12.90
2023-04-07T12:11:57.630Z,14.30
2023-04-07T12:14:25.692Z,12.97
2023-04-07T12:16:56.246Z,16.13
2023-04-07T12:19:24.262Z,12.40
2023-04-07T12:21:51.549Z,13.60
2023-04-07T12:24:18.963Z,16.40
2023-04-07T12:26:46.247Z,14.20
2023-04-07T12:29:13.774Z,12.57
2023-04-07T12:31:42.628Z,14.37
2023-04-07T12:34:10.032Z,11.57
2023-04-07T12:36:37.222Z,14.33
2023-04-07T12:39:04.719Z,14.53
2023-04-07T12:41:32.480Z,14.70
2023-04-07T12:43:59.693Z,12.87
2023-04-07T12:46:28.189Z,17.37
2023-04-07T12:48:55.479Z,15.30
2023-04-07T12:51:22.737Z,18.47
2023-04-07T12:53:50.597Z,16.43
2023-04-07T12:56:18.021Z,14.30
2023-04-07T12:58:45.186Z,14.20
2023-04-07T13:01:12.525Z,17.60
2023-04-07T13:03:40.064Z,13.97
2023-04-07T13:06:07.330Z,15.83
2023-04-07T13:08:34.566Z,17.37
2023-04-07T13:11:01.727Z,21.37
2023-04-07T13:13:29.108Z,24.07
2023-04-07T13:15:56.441Z,18.63
2023-04-07T13:18:23.564Z,20.50
2023-04-07T13:20:58.605Z,22.90
2023-04-07T13:23:43.264Z,22.07
2023-04-07T13:26:11.340Z,25.37
2023-04-07T13:28:39.156Z,22.17
2023-04-07T13:31:06.509Z,23.30
2023-04-07T13:33:35.447Z,23.70
2023-04-07T13:36:02.746Z,21.03
2023-04-07T13:38:29.923Z,23.57
2023-04-07T13:40:57.142Z,22.40
2023-04-07T13:43:24.303Z,21.70
2023-04-07T13:45:51.796Z,25.87
2023-04-07T13:48:19.130Z,23.57
2023-04-07T13:50:46.372Z,23.20
2023-04-07T13:53:13.630Z,24.23
2023-04-07T13:55:41.220Z,24.23
2023-04-07T13:58:08.444Z,25.53
2023-04-07T14:00:35.944Z,24.90
2023-04-07T14:03:04.455Z,25.77
2023-04-07T14:05:31.956Z,32.43
2023-04-07T14:07:59.272Z,31.47
2023-04-07T14:10:27.235Z,28.67
2023-04-07T14:12:54.405Z,29.77
2023-04-07T14:15:21.620Z,31.77
2023-04-07T14:17:48.814Z,34.27
2023-04-07T14:20:16.029Z,34.77
2023-04-07T14:22:43.211Z,30.53
2023-04-07T14:25:11.483Z,34.33
2023-04-07T14:27:38.681Z,32.73
2023-04-07T14:30:06.206Z,32.77
2023-04-07T14:32:34.397Z,34.23
2023-04-07T14:35:01.804Z,38.83
2023-04-07T14:37:29.425Z,35.50
2023-04-07T14:42:29.743Z,45.60
2023-04-07T14:44:56.919Z,37.53
2023-04-07T14:47:24.284Z,47.17
2023-04-07T14:49:53.370Z,39.33
2023-04-07T14:52:22.072Z,36.93
2023-04-07T14:54:49.496Z,39.17
2023-04-07T14:57:17.173Z,39.73
2023-04-07T14:59:44.565Z,35.20
2023-04-07T15:02:11.857Z,36.83
2023-04-07T15:04:39.583Z,35.17
2023-04-07T15:07:06.936Z,33.47
2023-04-07T15:09:34.522Z,36.03
2023-04-07T15:12:02.430Z,35.33
2023-04-07T15:14:30.460Z,35.27
2023-04-07T15:16:57.708Z,37.80
2023-04-07T15:19:24.931Z,34.63
2023-04-07T15:21:52.072Z,57.17
2023-04-07T15:24:21.424Z,42.77
2023-04-07T15:26:49.479Z,35.00
2023-04-07T15:29:16.667Z,44.03
2023-04-07T15:31:43.979Z,34.00
2023-04-07T15:34:11.313Z,38.03
2023-04-07T15:36:38.539Z,37.13
2023-04-07T15:39:09.617Z,37.77
2023-04-07T15:41:36.959Z,41.60
2023-04-07T15:44:04.766Z,40.50
2023-04-07T15:46:32.403Z,38.40
2023-04-07T15:49:00.481Z,38.20
2023-04-07T15:51:27.721Z,41.07
2023-04-07T15:53:55.253Z,41.07
2023-04-07T15:56:25.064Z,37.20
2023-04-07T15:58:52.353Z,38.23
2023-04-07T16:01:19.960Z,42.97
2023-04-07T16:03:47.471Z,33.50
2023-04-07T16:06:15.033Z,38.17
2023-04-07T16:08:42.338Z,38.20
2023-04-07T16:11:09.528Z,36.50
2023-04-07T16:13:36.839Z,38.83
2023-04-07T16:16:04.380Z,45.33
2023-04-07T16:18:31.600Z,43.67
2023-04-07T16:21:02.425Z,38.67
2023-04-07T16:23:31.133Z,40.90
2023-04-07T16:25:58.596Z,37.20
2023-04-07T16:28:25.766Z,41.83
2023-04-07T16:30:53.157Z,47.07
2023-04-07T16:33:20.491Z,35.57
2023-04-07T16:35:47.681Z,45.47
2023-04-07T16:38:15.037Z,40.10
2023-04-07T16:40:45.862Z,40.60
2023-04-07T16:43:21.067Z,54.40
2023-04-07T16:45:52.057Z,38.87
2023-04-07T16:48:19.340Z,41.20
2023-04-07T16:50:46.569Z,47.10
2023-04-07T16:53:13.719Z,40.07
2023-04-07T16:55:41.097Z,40.63
2023-04-07T16:58:11.896Z,41.33
2023-04-07T17:00:39.568Z,42.17
2023-04-07T17:03:06.956Z,39.17
2023-04-07T17:05:34.594Z,43.93
2023-04-07T17:08:01.714Z,43.47
2023-04-07T17:10:28.868Z,44.67
2023-04-07T17:12:56.392Z,41.50
2023-04-07T17:15:24.262Z,43.87
2023-04-07T17:17:51.587Z,43.90
2023-04-07T17:20:18.897Z,50.37
2023-04-07T17:22:46.642Z,40.40
2023-04-07T17:25:13.841Z,37.07
2023-04-07T17:27:44.027Z,35.53
2023-04-07T17:30:14.335Z,33.63
2023-04-07T17:32:42.474Z,38.80
2023-04-07T17:35:09.833Z,36.20
2023-04-07T17:37:38.415Z,38.70
2023-04-07T17:40:06.246Z,36.63
2023-04-07T17:42:33.574Z,39.73
2023-04-07T17:45:01.815Z,38.80
2023-04-07T17:47:30.944Z,39.43
2023-04-07T17:50:00.254Z,37.97
2023-04-07T17:52:28.915Z,42.17
2023-04-07T17:54:56.694Z,42.67
2023-04-07T17:57:24.363Z,39.50
2023-04-07T17:59:51.564Z,45.20
2023-04-07T18:02:18.956Z,39.87
2023-04-07T18:04:46.785Z,38.13
2023-04-07T18:07:14.971Z,47.03
2023-04-07T18:09:43.022Z,41.27
2023-04-07T18:12:10.280Z,43.13
2023-04-07T18:14:37.595Z,43.33
2023-04-07T18:17:04.768Z,44.30
2023-04-07T18:19:33.893Z,43.47
2023-04-07T18:22:01.975Z,40.10
2023-04-07T18:24:29.220Z,45.10
2023-04-07T18:26:57.326Z,42.20
2023-04-07T18:29:24.470Z,38.83
2023-04-07T18:31:51.734Z,42.80
2023-04-07T18:34:18.868Z,44.03
2023-04-07T18:36:47.599Z,38.97
2023-04-07T18:39:14.839Z,39.70
2023-04-07T18:41:44.752Z,41.10
2023-04-07T18:44:12.537Z,39.77
2023-04-07T18:46:39.743Z,39.90
2023-04-07T18:49:07.241Z,38.93
2023-04-07T18:51:34.579Z,38.20
2023-04-07T18:54:01.801Z,37.47
2023-04-07T18:56:29.920Z,45.47
2023-04-07T18:58:57.202Z,42.73
2023-04-07T19:01:24.668Z,43.93
2023-04-07T19:03:52.697Z,43.37
2023-04-07T19:06:20.538Z,42.73
2023-04-07T19:08:47.739Z,45.30
2023-04-07T19:11:14.927Z,41.97
2023-04-07T19:13:42.438Z,46.03
2023-04-07T19:16:09.788Z,38.23
2023-04-07T19:18:37.429Z,39.90
2023-04-07T19:21:04.572Z,40.90
2023-04-07T19:23:32.570Z,40.63
2023-04-07T19:26:00.858Z,41.00
2023-04-07T19:28:28.028Z,36.93
2023-04-07T19:30:55.988Z,41.60
2023-04-07T19:33:23.122Z,39.93
2023-04-07T19:35:50.426Z,41.73
2023-04-07T19:38:18.257Z,41.07
2023-04-07T19:40:47.847Z,42.93
2023-04-07T19:43:16.486Z,46.40
2023-04-07T19:45:43.807Z,46.90
2023-04-07T19:48:11.490Z,48.00
2023-04-07T19:50:43.572Z,43.53
2023-04-07T19:53:16.227Z,57.17
2023-04-07T19:55:44.060Z,57.63
2023-04-07T19:58:11.434Z,53.73
2023-04-07T20:00:39.257Z,65.37
2023-04-07T20:03:06.975Z,55.63
2023-04-07T20:05:34.835Z,55.83
2023-04-07T20:08:02.027Z,54.20
2023-04-07T20:10:29.216Z,49.30
2023-04-07T20:12:56.820Z,51.20
2023-04-07T20:15:27.257Z,49.60
2023-04-07T20:17:54.439Z,51.30
2023-04-07T20:20:22.373Z,52.33
2023-04-07T20:22:49.608Z,49.97
2023-04-07T20:25:17.023Z,53.60
2023-04-07T20:27:48.930Z,53.50
2023-04-07T20:30:16.560Z,53.47
2023-04-07T20:32:45.984Z,47.93
2023-04-07T20:35:13.311Z,50.00
2023-04-07T20:37:40.932Z,49.57
2023-04-07T20:40:08.551Z,54.37
2023-04-07T20:42:35.823Z,50.37
2023-04-07T20:45:05.655Z,53.60
2023-04-07T20:47:35.984Z,53.87
2023-04-07T20:50:03.331Z,53.80
2023-04-07T20:52:30.556Z,49.27
2023-04-07T20:54:58.381Z,55.57
2023-04-07T20:57:26.687Z,52.93
2023-04-07T20:59:53.888Z,52.67
2023-04-07T21:02:21.297Z,58.07
2023-04-07T21:04:49.069Z,55.77
2023-04-07T21:07:16.561Z,52.47
2023-04-07T21:09:43.807Z,53.47
2023-04-07T21:12:11.180Z,51.43
2023-04-07T21:14:38.358Z,53.67
2023-04-07T21:17:05.795Z,55.07
2023-04-07T21:19:33.032Z,52.07
2023-04-07T21:22:03.792Z,54.10
2023-04-07T21:24:32.087Z,53.97
2023-04-07T21:26:59.692Z,52.07
2023-04-07T21:29:31.491Z,49.37
2023-04-07T21:32:00.250Z,55.20
2023-04-07T21:34:27.560Z,50.87
2023-04-07T21:36:55.221Z,58.97
2023-04-07T21:39:22.501Z,56.50
2023-04-07T21:41:49.684Z,56.70
2023-04-07T21:44:21.436Z,55.37
2023-04-07T21:46:48.728Z,54.27
2023-04-07T21:49:18.039Z,58.80
2023-04-07T21:51:45.265Z,53.87
2023-04-07T21:54:12.560Z,50.77
2023-04-07T21:56:39.732Z,53.70
2023-04-07T21:59:07.323Z,56.37
2023-04-07T22:01:34.648Z,54.43
2023-04-07T22:04:02.346Z,57.73
2023-04-07T22:06:29.738Z,57.00
2023-04-07T22:09:01.601Z,51.30
2023-04-07T22:11:29.232Z,56.57
2023-04-07T22:13:56.572Z,53.33
2023-04-07T22:16:23.808Z,55.20
2023-04-07T22:18:51.631Z,53.03
2023-04-07T22:21:18.792Z,55.33
2023-04-07T22:23:45.920Z,53.83
2023-04-07T22:26:14.417Z,50.27
2023-04-07T22:28:41.972Z,54.03
2023-04-07T22:31:09.278Z,46.40
2023-04-07T22:33:36.588Z,50.70
2023-04-07T22:36:04.210Z,49.67
2023-04-07T22:38:31.537Z,47.77
2023-04-07T22:40:58.782Z,49.90
2023-04-07T22:43:25.988Z,50.67
2023-04-07T22:45:53.174Z,53.60
2023-04-07T22:48:20.728Z,48.33
2023-04-07T22:50:48.024Z,41.87
2023-04-07T22:53:15.217Z,47.33
2023-04-07T22:55:42.373Z,44.90
2023-04-07T22:58:09.672Z,43.37
2023-04-07T23:00:36.926Z,42.83
2023-04-07T23:03:04.583Z,45.63
2023-04-07T23:05:31.927Z,45.47
2023-04-07T23:07:59.178Z,39.77
2023-04-07T23:10:26.390Z,41.93
2023-04-07T23:12:56.719Z,37.53
2023-04-07T23:15:23.892Z,40.40
2023-04-07T23:17:51.059Z,39.23
2023-04-07T23:20:18.630Z,41.73
2023-04-07T23:22:46.086Z,34.70
2023-04-07T23:25:13.725Z,38.17
2023-04-07T23:27:41.136Z,34.83
2023-04-07T23:30:08.706Z,36.50
2023-04-07T23:32:36.010Z,36.43
2023-04-07T23:35:03.474Z,33.50
2023-04-07T23:37:30.818Z,37.47
2023-04-07T23:39:57.982Z,29.60
2023-04-07T23:42:25.339Z,37.97
2023-04-07T23:44:52.479Z,34.67
2023-04-07T23:47:19.721Z,33.07
2023-04-07T23:49:47.189Z,31.77
2023-04-07T23:52:15.286Z,29.77
2023-04-07T23:54:42.763Z,29.60
2023-04-07T23:57:12.916Z,29.43
2023-04-07T23:59:40.258Z,25.90
